sensor_id;sensor_type;location;lat;lon;timestamp;pressure;altitude;pressure_sealevel;temperature;humidity
53908;BME280;40469;47.998;7.794;2023-04-15T00:00:03;98006.78;;;6.54;100.00
53908;BME280;40469;47.998;7.794;2023-04-15T00:02:28;98002.41;;;6.60;100.00
53908;BME280;40469;47.998;7.794;2023-04-15T00:04:54;97990.31;;;6.58;100.00
53908;BME280;40469;47.998;7.794;2023-04-15T00:07:19;97985.06;;;6.67;100.00
53908;BME280;40469;47.998;7.794;2023-04-15T00:09:44;97993.63;;;6.72;100.00
53908;BME280;40469;47.998;7.794;2023-04-15T00:12:10;97984.13;;;6.73;100.00
53908;BME280;40469;47.998;7.794;2023-04-15T00:14:36;97992.66;;;6.82;100.00
53908;BME280;40469;47.998;7.794;2023-04-15T00:17:02;97983.19;;;6.80;100.00
53908;BME280;40469;47.998;7.794;2023-04-15T00:19:28;97990.88;;;6.88;100.00
53908;BME280;40469;47.998;7.794;2023-04-15T00:21:54;97989.13;;;6.90;100.00
53908;BME280;40469;47.998;7.794;2023-04-15T00:24:19;97983.09;;;6.89;100.00
53908;BME280;40469;47.998;7.794;2023-04-15T00:26:45;97986.50;;;6.93;100.00
53908;BME280;40469;47.998;7.794;2023-04-15T00:29:11;97985.66;;;6.94;100.00
53908;BME280;40469;47.998;7.794;2023-04-15T00:31:36;97989.09;;;6.96;100.00
53908;BME280;40469;47.998;7.794;2023-04-15T00:34:02;97979.63;;;6.90;100.00
53908;BME280;40469;47.998;7.794;2023-04-15T00:36:27;97979.56;;;6.95;100.00
53908;BME280;40469;47.998;7.794;2023-04-15T00:38:53;97987.31;;;6.99;100.00
53908;BME280;40469;47.998;7.794;2023-04-15T00:41:18;97990.78;;;6.97;100.00
53908;BME280;40469;47.998;7.794;2023-04-15T00:43:45;97983.88;;;6.96;100.00
53908;BME280;40469;47.998;7.794;2023-04-15T00:46:12;97989.00;;;7.00;100.00
53908;BME280;40469;47.998;7.794;2023-04-15T00:48:39;97964.88;;;6.94;100.00
53908;BME280;40469;47.998;7.794;2023-04-15T00:51:05;97972.47;;;7.09;100.00
53908;BME280;40469;47.998;7.794;2023-04-15T00:53:31;97969.06;;;7.04;100.00
53908;BME280;40469;47.998;7.794;2023-04-15T00:55:57;97980.22;;;7.14;100.00
53908;BME280;40469;47.998;7.794;2023-04-15T00:58:22;97980.19;;;7.15;100.00
53908;BME280;40469;47.998;7.794;2023-04-15T01:00:48;97971.56;;;7.13;100.00
53908;BME280;40469;47.998;7.794;2023-04-15T01:03:13;97975.97;;;7.08;100.00
53908;BME280;40469;47.998;7.794;2023-04-15T01:05:39;97970.75;;;7.10;100.00
53908;BME280;40469;47.998;7.794;2023-04-15T01:08:05;97963.00;;;7.08;100.00
53908;BME280;40469;47.998;7.794;2023-04-15T01:10:32;97956.06;;;7.06;100.00
53908;BME280;40469;47.998;7.794;2023-04-15T01:12:57;97962.16;;;7.05;100.00
53908;BME280;40469;47.998;7.794;2023-04-15T01:15:23;97956.19;;;6.98;100.00
53908;BME280;40469;47.998;7.794;2023-04-15T01:17:49;97954.44;;;6.98;100.00
53908;BME280;40469;47.998;7.794;2023-04-15T01:20:14;97954.44;;;6.98;100.00
53908;BME280;40469;47.998;7.794;2023-04-15T01:22:40;97959.75;;;6.89;100.00
53908;BME280;40469;47.998;7.794;2023-04-15T01:25:15;97954.53;;;6.92;100.00
53908;BME280;40469;47.998;7.794;2023-04-15T01:27:42;97957.97;;;6.91;100.00
53908;BME280;40469;47.998;7.794;2023-04-15T01:30:08;97958.94;;;6.84;100.00
53908;BME280;40469;47.998;7.794;2023-04-15T01:32:35;97959.75;;;6.88;100.00
53908;BME280;40469;47.998;7.794;2023-04-15T01:35:00;97968.47;;;6.83;100.00
53908;BME280;40469;47.998;7.794;2023-04-15T01:37:26;97958.09;;;6.80;100.00
53908;BME280;40469;47.998;7.794;2023-04-15T01:39:51;97960.59;;;6.88;100.00
53908;BME280;40469;47.998;7.794;2023-04-15T01:42:17;97963.25;;;6.87;100.00
53908;BME280;40469;47.998;7.794;2023-04-15T01:44:42;97947.69;;;6.87;100.00
53908;BME280;40469;47.998;7.794;2023-04-15T01:47:07;97952.78;;;6.91;100.00
53908;BME280;40469;47.998;7.794;2023-04-15T01:49:33;97961.47;;;6.89;100.00
53908;BME280;40469;47.998;7.794;2023-04-15T01:51:58;97950.19;;;6.93;100.00
53908;BME280;40469;47.998;7.794;2023-04-15T01:54:24;97953.59;;;6.96;100.00
53908;BME280;40469;47.998;7.794;2023-04-15T01:56:50;97957.00;;;7.03;100.00
53908;BME280;40469;47.998;7.794;2023-04-15T01:59:16;97962.19;;;7.01;100.00
53908;BME280;40469;47.998;7.794;2023-04-15T02:01:41;97950.13;;;6.99;100.00
53908;BME280;40469;47.998;7.794;2023-04-15T02:04:07;97956.09;;;7.04;100.00
53908;BME280;40469;47.998;7.794;2023-04-15T02:06:40;97959.47;;;7.12;100.00
53908;BME280;40469;47.998;7.794;2023-04-15T02:09:05;97948.34;;;7.02;100.00
53908;BME280;40469;47.998;7.794;2023-04-15T02:11:31;97951.00;;;6.96;100.00
53908;BME280;40469;47.998;7.794;2023-04-15T02:13:56;97960.38;;;7.08;100.00
53908;BME280;40469;47.998;7.794;2023-04-15T02:16:21;97953.44;;;7.10;100.00
53908;BME280;40469;47.998;7.794;2023-04-15T02:18:47;97952.59;;;7.10;100.00
53908;BME280;40469;47.998;7.794;2023-04-15T02:21:13;97956.84;;;7.14;100.00
53908;BME280;40469;47.998;7.794;2023-04-15T02:23:38;97953.44;;;7.10;100.00
53908;BME280;40469;47.998;7.794;2023-04-15T02:26:04;97955.06;;;7.19;100.00
53908;BME280;40469;47.998;7.794;2023-04-15T02:28:29;97952.44;;;7.20;100.00
53908;BME280;40469;47.998;7.794;2023-04-15T02:30:55;97953.31;;;7.21;100.00
53908;BME280;40469;47.998;7.794;2023-04-15T02:33:21;97951.56;;;7.21;100.00
53908;BME280;40469;47.998;7.794;2023-04-15T02:35:47;97951.59;;;7.20;100.00
53908;BME280;40469;47.998;7.794;2023-04-15T02:38:12;97949.03;;;7.18;100.00
53908;BME280;40469;47.998;7.794;2023-04-15T02:40:40;97942.94;;;7.18;100.00
53908;BME280;40469;47.998;7.794;2023-04-15T02:43:06;97949.72;;;7.30;100.00
53908;BME280;40469;47.998;7.794;2023-04-15T02:45:32;97947.25;;;7.20;100.00
53908;BME280;40469;47.998;7.794;2023-04-15T02:47:57;97941.25;;;7.15;100.00
53908;BME280;40469;47.998;7.794;2023-04-15T02:50:22;97942.91;;;7.21;100.00
53908;BME280;40469;47.998;7.794;2023-04-15T02:52:49;97946.41;;;7.20;100.00
53908;BME280;40469;47.998;7.794;2023-04-15T02:55:16;97937.75;;;7.18;100.00
53908;BME280;40469;47.998;7.794;2023-04-15T02:57:42;97945.50;;;7.21;100.00
53908;BME280;40469;47.998;7.794;2023-04-15T03:00:08;97954.22;;;7.17;100.00
53908;BME280;40469;47.998;7.794;2023-04-15T03:02:36;97944.00;;;7.03;100.00
53908;BME280;40469;47.998;7.794;2023-04-15T03:05:02;97948.28;;;7.07;100.00
53908;BME280;40469;47.998;7.794;2023-04-15T03:07:28;97947.34;;;7.13;100.00
53908;BME280;40469;47.998;7.794;2023-04-15T03:09:53;97944.69;;;7.19;100.00
53908;BME280;40469;47.998;7.794;2023-04-15T03:12:19;97933.50;;;7.14;100.00
53908;BME280;40469;47.998;7.794;2023-04-15T03:14:44;97947.22;;;7.24;100.00
53908;BME280;40469;47.998;7.794;2023-04-15T03:17:10;97948.06;;;7.26;100.00
53908;BME280;40469;47.998;7.794;2023-04-15T03:19:35;97938.56;;;7.23;100.00
53908;BME280;40469;47.998;7.794;2023-04-15T03:22:01;97938.66;;;7.17;100.00
53908;BME280;40469;47.998;7.794;2023-04-15T03:24:26;97944.63;;;7.24;100.00
53908;BME280;40469;47.998;7.794;2023-04-15T03:26:53;97946.34;;;7.23;100.00
53908;BME280;40469;47.998;7.794;2023-04-15T03:29:19;97939.47;;;7.20;100.00
53908;BME280;40469;47.998;7.794;2023-04-15T03:31:44;97937.72;;;7.21;100.00
53908;BME280;40469;47.998;7.794;2023-04-15T03:34:10;97933.34;;;7.26;100.00
53908;BME280;40469;47.998;7.794;2023-04-15T03:36:35;97940.28;;;7.26;100.00
53908;BME280;40469;47.998;7.794;2023-04-15T03:39:01;97937.69;;;7.26;100.00
53908;BME280;40469;47.998;7.794;2023-04-15T03:41:26;97928.19;;;7.21;100.00
53908;BME280;40469;47.998;7.794;2023-04-15T03:43:52;97931.69;;;7.19;100.00
53908;BME280;40469;47.998;7.794;2023-04-15T03:46:18;97939.50;;;7.17;100.00
53908;BME280;40469;47.998;7.794;2023-04-15T03:48:43;97932.56;;;7.18;100.00
53908;BME280;40469;47.998;7.794;2023-04-15T03:51:09;97932.53;;;7.22;100.00
53908;BME280;40469;47.998;7.794;2023-04-15T03:53:35;97935.09;;;7.26;100.00
53908;BME280;40469;47.998;7.794;2023-04-15T03:56:00;97931.56;;;7.28;100.00
53908;BME280;40469;47.998;7.794;2023-04-15T03:58:26;97938.53;;;7.25;100.00
53908;BME280;40469;47.998;7.794;2023-04-15T04:00:51;97928.97;;;7.28;100.00
53908;BME280;40469;47.998;7.794;2023-04-15T04:03:17;97934.13;;;7.33;100.00
53908;BME280;40469;47.998;7.794;2023-04-15T04:05:42;97939.34;;;7.31;100.00
53908;BME280;40469;47.998;7.794;2023-04-15T04:08:08;97944.56;;;7.27;100.00
53908;BME280;40469;47.998;7.794;2023-04-15T04:10:34;97936.88;;;7.22;100.00
53908;BME280;40469;47.998;7.794;2023-04-15T04:13:00;97940.28;;;7.26;100.00
53908;BME280;40469;47.998;7.794;2023-04-15T04:15:26;97943.63;;;7.32;100.00
53908;BME280;40469;47.998;7.794;2023-04-15T04:17:51;97932.56;;;7.18;100.00
53908;BME280;40469;47.998;7.794;2023-04-15T04:20:16;97940.41;;;7.15;100.00
53908;BME280;40469;47.998;7.794;2023-04-15T04:22:42;97946.34;;;7.25;100.00
53908;BME280;40469;47.998;7.794;2023-04-15T04:25:08;97948.06;;;7.26;100.00
53908;BME280;40469;47.998;7.794;2023-04-15T04:27:34;97947.97;;;7.30;100.00
53908;BME280;40469;47.998;7.794;2023-04-15T04:30:00;97942.03;;;7.24;100.00
53908;BME280;40469;47.998;7.794;2023-04-15T04:32:26;97959.25;;;7.31;100.00
53908;BME280;40469;47.998;7.794;2023-04-15T04:34:51;97961.88;;;7.29;100.00
53908;BME280;40469;47.998;7.794;2023-04-15T04:37:16;97960.97;;;7.30;100.00
53908;BME280;40469;47.998;7.794;2023-04-15T04:39:42;97959.25;;;7.31;100.00
53908;BME280;40469;47.998;7.794;2023-04-15T04:42:08;97963.50;;;7.35;100.00
53908;BME280;40469;47.998;7.794;2023-04-15T04:44:33;97965.19;;;7.37;100.00
53908;BME280;40469;47.998;7.794;2023-04-15T04:46:58;97966.00;;;7.43;100.00
53908;BME280;40469;47.998;7.794;2023-04-15T04:49:24;97966.06;;;7.39;100.00
53908;BME280;40469;47.998;7.794;2023-04-15T04:51:50;97967.72;;;7.45;100.00
53908;BME280;40469;47.998;7.794;2023-04-15T04:54:15;97975.56;;;7.40;100.00
53908;BME280;40469;47.998;7.794;2023-04-15T04:56:41;97971.22;;;7.41;100.00
53908;BME280;40469;47.998;7.794;2023-04-15T04:59:06;97974.56;;;7.49;100.00
53908;BME280;40469;47.998;7.794;2023-04-15T05:01:31;97977.84;;;7.62;100.00
53908;BME280;40469;47.998;7.794;2023-04-15T05:03:57;97973.47;;;7.66;100.00
53908;BME280;40469;47.998;7.794;2023-04-15T05:06:23;97980.41;;;7.67;100.00
53908;BME280;40469;47.998;7.794;2023-04-15T05:08:49;97982.16;;;7.66;100.00
53908;BME280;40469;47.998;7.794;2023-04-15T05:11:14;98001.19;;;7.67;100.00
53908;BME280;40469;47.998;7.794;2023-04-15T05:13:40;97994.50;;;7.49;100.00
53908;BME280;40469;47.998;7.794;2023-04-15T05:16:05;97987.72;;;7.38;100.00
53908;BME280;40469;47.998;7.794;2023-04-15T05:18:31;97986.91;;;7.32;100.00
53908;BME280;40469;47.998;7.794;2023-04-15T05:20:57;97992.91;;;7.37;100.00
53908;BME280;40469;47.998;7.794;2023-04-15T05:23:23;97990.38;;;7.32;100.00
53908;BME280;40469;47.998;7.794;2023-04-15T05:25:48;97986.84;;;7.39;100.00
53908;BME280;40469;47.998;7.794;2023-04-15T05:28:13;97992.03;;;7.39;100.00
53908;BME280;40469;47.998;7.794;2023-04-15T05:30:39;97998.88;;;7.45;100.00
53908;BME280;40469;47.998;7.794;2023-04-15T05:33:04;97997.09;;;7.49;100.00
53908;BME280;40469;47.998;7.794;2023-04-15T05:35:30;98006.56;;;7.51;100.00
53908;BME280;40469;47.998;7.794;2023-04-15T05:37:55;98011.63;;;7.60;100.00
53908;BME280;40469;47.998;7.794;2023-04-15T05:40:21;98017.56;;;7.72;100.00
53908;BME280;40469;47.998;7.794;2023-04-15T05:42:46;98016.09;;;7.52;100.00
53908;BME280;40469;47.998;7.794;2023-04-15T05:45:11;98020.47;;;7.50;100.00
53908;BME280;40469;47.998;7.794;2023-04-15T05:47:37;98020.34;;;7.58;100.00
53908;BME280;40469;47.998;7.794;2023-04-15T05:50:03;98018.63;;;7.57;100.00
53908;BME280;40469;47.998;7.794;2023-04-15T05:52:30;98015.84;;;7.69;100.00
53908;BME280;40469;47.998;7.794;2023-04-15T05:54:55;98018.00;;;7.39;100.00
53908;BME280;40469;47.998;7.794;2023-04-15T05:57:21;98019.53;;;7.54;100.00
53908;BME280;40469;47.998;7.794;2023-04-15T05:59:46;98009.81;;;7.67;100.00
53908;BME280;40469;47.998;7.794;2023-04-15T06:02:12;98018.38;;;7.77;100.00
53908;BME280;40469;47.998;7.794;2023-04-15T06:04:37;98018.25;;;7.85;100.00
53908;BME280;40469;47.998;7.794;2023-04-15T06:07:03;98011.22;;;7.93;100.00
53908;BME280;40469;47.998;7.794;2023-04-15T06:09:28;98015.47;;;7.97;100.00
53908;BME280;40469;47.998;7.794;2023-04-15T06:11:54;98013.97;;;7.82;100.00
53908;BME280;40469;47.998;7.794;2023-04-15T06:14:21;98015.59;;;7.89;100.00
53908;BME280;40469;47.998;7.794;2023-04-15T06:16:46;98003.63;;;7.79;100.00
53908;BME280;40469;47.998;7.794;2023-04-15T06:19:11;98010.47;;;7.85;100.00
53908;BME280;40469;47.998;7.794;2023-04-15T06:21:38;98015.00;;;7.70;100.00
53908;BME280;40469;47.998;7.794;2023-04-15T06:24:04;98007.31;;;7.61;100.00
53908;BME280;40469;47.998;7.794;2023-04-15T06:26:29;98008.69;;;7.87;100.00
53908;BME280;40469;47.998;7.794;2023-04-15T06:28:55;98009.41;;;7.98;100.00
53908;BME280;40469;47.998;7.794;2023-04-15T06:31:21;98017.34;;;7.89;100.00
53908;BME280;40469;47.998;7.794;2023-04-15T06:33:46;98019.03;;;7.90;100.00
53908;BME280;40469;47.998;7.794;2023-04-15T06:36:12;98011.91;;;8.03;100.00
53908;BME280;40469;47.998;7.794;2023-04-15T06:38:37;98016.28;;;8.02;100.00
53908;BME280;40469;47.998;7.794;2023-04-15T06:41:03;98016.06;;;8.16;100.00
53908;BME280;40469;47.998;7.794;2023-04-15T06:43:29;98016.94;;;8.15;100.00
53908;BME280;40469;47.998;7.794;2023-04-15T06:45:55;98011.66;;;8.21;100.00
53908;BME280;40469;47.998;7.794;2023-04-15T06:48:21;98012.53;;;8.20;100.00
53908;BME280;40469;47.998;7.794;2023-04-15T06:50:46;98020.91;;;8.38;100.00
53908;BME280;40469;47.998;7.794;2023-04-15T06:53:12;98017.44;;;8.40;100.00
53908;BME280;40469;47.998;7.794;2023-04-15T06:55:38;98019.13;;;8.43;100.00
53908;BME280;40469;47.998;7.794;2023-04-15T06:58:04;98017.47;;;8.37;100.00
53908;BME280;40469;47.998;7.794;2023-04-15T07:00:30;98016.47;;;8.49;100.00
53908;BME280;40469;47.998;7.794;2023-04-15T07:02:55;98015.34;;;8.62;100.00
53908;BME280;40469;47.998;7.794;2023-04-15T07:05:21;98017.91;;;8.64;100.00
53908;BME280;40469;47.998;7.794;2023-04-15T07:07:46;98017.72;;;8.75;100.00
53908;BME280;40469;47.998;7.794;2023-04-15T07:10:12;98014.25;;;8.76;100.00
53908;BME280;40469;47.998;7.794;2023-04-15T07:12:39;98004.06;;;8.63;100.00
53908;BME280;40469;47.998;7.794;2023-04-15T07:15:05;98005.56;;;8.75;100.00
53908;BME280;40469;47.998;7.794;2023-04-15T07:17:31;98008.84;;;8.86;100.00
53908;BME280;40469;47.998;7.794;2023-04-15T07:19:56;98007.03;;;8.91;100.00
53908;BME280;40469;47.998;7.794;2023-04-15T07:22:21;98003.50;;;8.94;100.00
53908;BME280;40469;47.998;7.794;2023-04-15T07:24:47;97992.19;;;8.97;100.00
53908;BME280;40469;47.998;7.794;2023-04-15T07:27:12;98003.22;;;9.09;100.00
53908;BME280;40469;47.998;7.794;2023-04-15T07:29:37;98012.78;;;9.09;100.00
53908;BME280;40469;47.998;7.794;2023-04-15T07:32:03;98004.97;;;9.09;100.00
53908;BME280;40469;47.998;7.794;2023-04-15T07:34:28;98015.31;;;9.10;100.00
53908;BME280;40469;47.998;7.794;2023-04-15T07:36:54;98011.84;;;9.11;100.00
53908;BME280;40469;47.998;7.794;2023-04-15T07:39:19;98009.88;;;9.23;100.00
53908;BME280;40469;47.998;7.794;2023-04-15T07:41:45;98008.22;;;9.20;100.00
53908;BME280;40469;47.998;7.794;2023-04-15T07:44:10;98015.25;;;9.15;100.00
53908;BME280;40469;47.998;7.794;2023-04-15T07:46:36;98011.63;;;9.22;100.00
53908;BME280;40469;47.998;7.794;2023-04-15T07:49:02;98011.63;;;9.22;100.00
53908;BME280;40469;47.998;7.794;2023-04-15T07:51:28;98012.28;;;9.34;100.00
53908;BME280;40469;47.998;7.794;2023-04-15T07:53:53;98010.50;;;9.36;100.00
53908;BME280;40469;47.998;7.794;2023-04-15T07:56:19;98010.56;;;9.33;100.00
53908;BME280;40469;47.998;7.794;2023-04-15T07:58:44;98019.59;;;9.58;100.00
53908;BME280;40469;47.998;7.794;2023-04-15T08:01:10;98013.38;;;9.65;100.00
53908;BME280;40469;47.998;7.794;2023-04-15T08:03:35;98017.41;;;9.79;100.00
53908;BME280;40469;47.998;7.794;2023-04-15T08:06:01;98023.25;;;9.90;100.00
53908;BME280;40469;47.998;7.794;2023-04-15T08:08:27;98017.72;;;10.04;100.00
53908;BME280;40469;47.998;7.794;2023-04-15T08:10:52;98018.75;;;9.97;100.00
53908;BME280;40469;47.998;7.794;2023-04-15T08:13:18;98014.28;;;10.02;100.00
53908;BME280;40469;47.998;7.794;2023-04-15T08:15:43;98023.72;;;10.07;100.00
53908;BME280;40469;47.998;7.794;2023-04-15T08:18:09;98022.22;;;9.97;100.00
53908;BME280;40469;47.998;7.794;2023-04-15T08:20:35;98024.97;;;9.91;100.00
53908;BME280;40469;47.998;7.794;2023-04-15T08:23:00;98024.91;;;9.94;100.00
53908;BME280;40469;47.998;7.794;2023-04-15T08:25:26;98032.03;;;9.86;100.00
53908;BME280;40469;47.998;7.794;2023-04-15T08:27:54;98030.94;;;9.96;100.00
53908;BME280;40469;47.998;7.794;2023-04-15T08:30:20;98037.13;;;9.92;100.00
53908;BME280;40469;47.998;7.794;2023-04-15T08:32:45;98046.78;;;9.87;100.00
53908;BME280;40469;47.998;7.794;2023-04-15T08:35:11;98042.53;;;9.83;100.00
53908;BME280;40469;47.998;7.794;2023-04-15T08:37:37;98042.47;;;9.84;100.00
53908;BME280;40469;47.998;7.794;2023-04-15T08:40:03;98040.75;;;9.85;100.00
53908;BME280;40469;47.998;7.794;2023-04-15T08:42:30;98047.47;;;9.95;100.00
53908;BME280;40469;47.998;7.794;2023-04-15T08:45:00;98048.16;;;10.03;100.00
53908;BME280;40469;47.998;7.794;2023-04-15T08:47:29;98051.56;;;10.07;100.00
53908;BME280;40469;47.998;7.794;2023-04-15T08:49:58;98054.00;;;10.15;100.00
53908;BME280;40469;47.998;7.794;2023-04-15T08:52:25;98060.59;;;10.30;100.00
53908;BME280;40469;47.998;7.794;2023-04-15T08:54:56;98058.75;;;10.36;100.00
53908;BME280;40469;47.998;7.794;2023-04-15T08:57:26;98058.22;;;10.58;100.00
53908;BME280;40469;47.998;7.794;2023-04-15T08:59:58;98062.19;;;10.73;100.00
53908;BME280;40469;47.998;7.794;2023-04-15T09:02:24;98058.91;;;10.66;100.00
53908;BME280;40469;47.998;7.794;2023-04-15T09:04:51;98058.22;;;10.58;100.00
53908;BME280;40469;47.998;7.794;2023-04-15T09:07:17;98064.94;;;10.68;100.00
53908;BME280;40469;47.998;7.794;2023-04-15T09:09:42;98060.47;;;10.73;100.00
53908;BME280;40469;47.998;7.794;2023-04-15T09:12:08;98067.31;;;10.77;100.00
53908;BME280;40469;47.998;7.794;2023-04-15T09:14:34;98065.28;;;10.89;100.00
53908;BME280;40469;47.998;7.794;2023-04-15T09:17:01;98070.34;;;10.96;100.00
53908;BME280;40469;47.998;7.794;2023-04-15T09:19:28;98069.63;;;11.24;100.00
53908;BME280;40469;47.998;7.794;2023-04-15T09:21:55;98068.38;;;11.37;100.00
53908;BME280;40469;47.998;7.794;2023-04-15T09:24:21;98069.09;;;11.43;100.00
53908;BME280;40469;47.998;7.794;2023-04-15T09:26:47;98078.25;;;11.57;100.00
53908;BME280;40469;47.998;7.794;2023-04-15T09:29:16;98079.53;;;11.10;100.00
53908;BME280;40469;47.998;7.794;2023-04-15T09:31:42;98078.44;;;11.18;100.00
53908;BME280;40469;47.998;7.794;2023-04-15T09:34:08;98076.31;;;11.33;100.00
53908;BME280;40469;47.998;7.794;2023-04-15T09:36:54;98076.31;;;11.64;100.00
53908;BME280;40469;47.998;7.794;2023-04-15T09:39:20;98081.97;;;11.80;100.00
53908;BME280;40469;47.998;7.794;2023-04-15T09:41:46;98085.50;;;11.79;100.00
53908;BME280;40469;47.998;7.794;2023-04-15T09:44:25;98079.69;;;12.01;100.00
53908;BME280;40469;47.998;7.794;2023-04-15T09:46:50;98091.09;;;12.26;100.00
53908;BME280;40469;47.998;7.794;2023-04-15T09:49:16;98092.06;;;12.24;100.00
53908;BME280;40469;47.998;7.794;2023-04-15T09:51:42;98086.72;;;12.55;100.00
53908;BME280;40469;47.998;7.794;2023-04-15T09:54:08;98088.25;;;13.14;100.00
53908;BME280;40469;47.998;7.794;2023-04-15T09:56:35;98091.88;;;13.37;100.00
53908;BME280;40469;47.998;7.794;2023-04-15T09:59:04;98090.31;;;13.33;100.00
53908;BME280;40469;47.998;7.794;2023-04-15T10:01:30;98098.50;;;13.22;100.00
53908;BME280;40469;47.998;7.794;2023-04-15T10:03:56;98093.25;;;13.22;100.00
53908;BME280;40469;47.998;7.794;2023-04-15T10:06:23;98092.97;;;13.31;100.00
53908;BME280;40469;47.998;7.794;2023-04-15T10:08:50;98104.22;;;13.08;100.00
53908;BME280;40469;47.998;7.794;2023-04-15T10:11:17;98101.13;;;12.68;100.00
53908;BME280;40469;47.998;7.794;2023-04-15T10:13:43;98101.09;;;12.70;100.00
53908;BME280;40469;47.998;7.794;2023-04-15T10:16:13;98099.13;;;12.77;100.00
53908;BME280;40469;47.998;7.794;2023-04-15T10:18:43;98101.25;;;12.92;100.00
53908;BME280;40469;47.998;7.794;2023-04-15T10:21:09;98103.75;;;12.95;100.00
53908;BME280;40469;47.998;7.794;2023-04-15T10:23:35;98111.91;;;12.86;100.00
53908;BME280;40469;47.998;7.794;2023-04-15T10:26:01;98099.22;;;12.17;100.00
53908;BME280;40469;47.998;7.794;2023-04-15T10:28:28;98105.41;;;12.44;100.00
53908;BME280;40469;47.998;7.794;2023-04-15T10:30:53;98103.59;;;12.73;100.00
53908;BME280;40469;47.998;7.794;2023-04-15T10:33:22;98108.59;;;12.81;100.00
53908;BME280;40469;47.998;7.794;2023-04-15T10:35:50;98105.16;;;12.79;100.00
53908;BME280;40469;47.998;7.794;2023-04-15T10:41:20;98113.41;;;13.20;100.00
53908;BME280;40469;47.998;7.794;2023-04-15T10:43:55;98113.63;;;13.64;100.00
53908;BME280;40469;47.998;7.794;2023-04-15T10:46:41;98122.16;;;13.71;100.00
53908;BME280;40469;47.998;7.794;2023-04-15T10:49:12;98126.50;;;13.72;100.00
53908;BME280;40469;47.998;7.794;2023-04-15T10:51:40;98125.41;;;13.77;100.00
53908;BME280;40469;47.998;7.794;2023-04-15T10:59:32;98123.13;;;13.68;100.00
53908;BME280;40469;47.998;7.794;2023-04-15T11:02:01;98132.91;;;13.88;100.00
53908;BME280;40469;47.998;7.794;2023-04-15T11:04:52;98129.28;;;13.67;100.00
53908;BME280;40469;47.998;7.794;2023-04-15T11:07:46;98133.56;;;14.17;100.00
53908;BME280;40469;47.998;7.794;2023-04-15T11:12:38;98136.09;;;14.44;100.00
53908;BME280;40469;47.998;7.794;2023-04-15T11:15:44;98132.44;;;14.92;100.00
53908;BME280;40469;47.998;7.794;2023-04-15T11:18:11;98129.81;;;14.70;100.00
53908;BME280;40469;47.998;7.794;2023-04-15T11:20:38;98137.22;;;14.36;100.00
53908;BME280;40469;47.998;7.794;2023-04-15T11:23:05;98140.50;;;14.19;100.00
53908;BME280;40469;47.998;7.794;2023-04-15T11:25:32;98135.31;;;13.94;100.00
53908;BME280;40469;47.998;7.794;2023-04-15T11:28:00;98136.03;;;14.21;100.00
53908;BME280;40469;47.998;7.794;2023-04-15T11:30:31;98140.66;;;14.15;100.00
53908;BME280;40469;47.998;7.794;2023-04-15T11:33:01;98153.69;;;13.94;100.00
53908;BME280;40469;47.998;7.794;2023-04-15T11:35:27;98150.13;;;13.72;100.00
53908;BME280;40469;47.998;7.794;2023-04-15T11:37:53;98152.13;;;13.63;100.00
53908;BME280;40469;47.998;7.794;2023-04-15T11:40:23;98155.94;;;13.55;100.00
53908;BME280;40469;47.998;7.794;2023-04-15T11:43:09;98162.41;;;13.44;100.00
53908;BME280;40469;47.998;7.794;2023-04-15T11:45:36;98164.28;;;13.14;100.00
53908;BME280;40469;47.998;7.794;2023-04-15T11:48:10;98157.16;;;13.18;100.00
53908;BME280;40469;47.998;7.794;2023-04-15T11:50:37;98162.88;;;13.31;100.00
53908;BME280;40469;47.998;7.794;2023-04-15T11:53:06;98167.97;;;13.35;100.00
53908;BME280;40469;47.998;7.794;2023-04-15T11:55:52;98168.63;;;13.15;100.00
53908;BME280;40469;47.998;7.794;2023-04-15T11:58:22;98176.88;;;13.31;100.00
53908;BME280;40469;47.998;7.794;2023-04-15T12:00:54;98182.53;;;13.17;100.00
53908;BME280;40469;47.998;7.794;2023-04-15T12:03:39;98181.84;;;13.11;100.00
53908;BME280;40469;47.998;7.794;2023-04-15T12:06:22;98193.91;;;13.16;100.00
53908;BME280;40469;47.998;7.794;2023-04-15T12:13:53;98190.25;;;13.22;100.00
53908;BME280;40469;47.998;7.794;2023-04-15T12:16:18;98198.06;;;12.95;100.00
53908;BME280;40469;47.998;7.794;2023-04-15T12:18:45;98202.13;;;13.05;100.00
53908;BME280;40469;47.998;7.794;2023-04-15T12:21:12;98199.22;;;13.15;100.00
53908;BME280;40469;47.998;7.794;2023-04-15T12:23:38;98205.81;;;13.26;100.00
53908;BME280;40469;47.998;7.794;2023-04-15T12:26:04;98211.53;;;13.39;100.00
53908;BME280;40469;47.998;7.794;2023-04-15T12:28:30;98209.16;;;13.32;100.00
53908;BME280;40469;47.998;7.794;2023-04-15T12:30:56;98211.75;;;13.33;100.00
53908;BME280;40469;47.998;7.794;2023-04-15T12:33:22;98210.78;;;13.62;100.00
53908;BME280;40469;47.998;7.794;2023-04-15T12:35:47;98209.22;;;13.82;100.00
53908;BME280;40469;47.998;7.794;2023-04-15T12:38:12;98213.72;;;14.03;100.00
53908;BME280;40469;47.998;7.794;2023-04-15T12:40:38;98221.09;;;14.17;100.00
53908;BME280;40469;47.998;7.794;2023-04-15T12:43:03;98220.78;;;14.25;100.00
53908;BME280;40469;47.998;7.794;2023-04-15T13:00:59;98235.91;;;15.33;100.00
53908;BME280;40469;47.998;7.794;2023-04-15T13:03:25;98244.63;;;15.56;100.00
53908;BME280;40469;47.998;7.794;2023-04-15T13:05:50;98240.53;;;15.91;98.88
53908;BME280;40469;47.998;7.794;2023-04-15T13:08:16;98228.97;;;15.96;100.00
53908;BME280;40469;47.998;7.794;2023-04-15T13:10:42;98228.28;;;16.11;98.98
53908;BME280;40469;47.998;7.794;2023-04-15T13:13:07;98240.03;;;15.83;100.00
53908;BME280;40469;47.998;7.794;2023-04-15T13:15:33;98240.75;;;15.44;100.00
53908;BME280;40469;47.998;7.794;2023-04-15T13:17:59;98244.28;;;15.43;100.00
53908;BME280;40469;47.998;7.794;2023-04-15T13:20:24;98253.97;;;15.43;100.00
53908;BME280;40469;47.998;7.794;2023-04-15T13:22:51;98247.31;;;15.34;100.00
53908;BME280;40469;47.998;7.794;2023-04-15T13:25:17;98258.69;;;15.12;100.00